createdAt,value
2019-04-23T00:01:49.131Z,45.30
2019-04-23T00:06:06.688Z,45.30
2019-04-23T00:10:13.935Z,45.70
2019-04-23T00:14:20.368Z,45.80
2019-04-23T00:18:22.257Z,46.20
2019-04-23T00:22:46.538Z,46.50
2019-04-23T00:26:52.235Z,46.70
2019-04-23T00:31:01.691Z,47.00
2019-04-23T00:39:10.310Z,47.30
2019-04-23T00:47:25.712Z,47.90
2019-04-23T00:51:33.170Z,48.40
2019-04-23T00:55:35.412Z,48.50
2019-04-23T00:59:48.299Z,48.70
2019-04-23T01:03:53.004Z,48.80
2019-04-23T01:07:57.846Z,48.70
2019-04-23T01:12:06.358Z,49.00
2019-04-23T01:16:10.017Z,49.20
2019-04-23T01:20:26.874Z,49.50
2019-04-23T01:24:29.710Z,49.20
2019-04-23T01:29:03.417Z,49.20
2019-04-23T01:33:14.198Z,49.50
2019-04-23T01:37:09.301Z,49.60
2019-04-23T01:41:20.624Z,49.60
2019-04-23T01:49:37.336Z,49.70
2019-04-23T01:53:39.762Z,49.90
2019-04-23T01:57:58.877Z,49.90
2019-04-23T02:06:00.294Z,50.10
2019-04-23T02:10:16.776Z,51.20
2019-04-23T02:14:14.582Z,51.00
2019-04-23T02:23:13.250Z,51.00
2019-04-23T02:27:12.150Z,51.40
2019-04-23T02:35:46.630Z,51.50
2019-04-23T02:39:40.085Z,51.80
2019-04-23T02:43:37.156Z,52.50
2019-04-23T02:47:55.529Z,52.30
2019-04-23T03:04:28.765Z,52.20
2019-04-23T03:08:31.033Z,52.30
2019-04-23T03:12:34.011Z,52.10
2019-04-23T03:25:31.109Z,53.00
2019-04-23T03:42:02.567Z,53.20
2019-04-23T03:50:22.743Z,53.40
2019-04-23T03:54:36.116Z,53.60
2019-04-23T03:58:30.640Z,53.50
2019-04-23T04:02:39.843Z,53.00
2019-04-23T04:06:43.165Z,53.20
2019-04-23T04:31:25.320Z,54.60
2019-04-23T04:35:29.016Z,54.80
2019-04-23T04:39:37.735Z,54.70
2019-04-23T04:52:08.417Z,55.00
2019-04-23T04:56:12.863Z,55.60
2019-04-23T05:04:18.238Z,55.20
2019-04-23T05:08:26.280Z,55.40
2019-04-23T05:12:23.871Z,55.40
2019-04-23T05:16:27.523Z,55.50
2019-04-23T05:20:40.766Z,55.80
2019-04-23T05:24:41.618Z,55.20
2019-04-23T05:28:55.670Z,55.20
2019-04-23T05:33:01.700Z,54.50
2019-04-23T05:37:03.485Z,54.00
2019-04-23T05:41:16.669Z,53.70
2019-04-23T05:45:23.579Z,53.70
2019-04-23T05:49:22.632Z,52.90
2019-04-23T05:53:27.854Z,52.70
2019-04-23T05:57:37.364Z,52.40
2019-04-23T06:01:54.027Z,53.10
2019-04-23T06:06:01.242Z,52.80
2019-04-23T06:18:12.110Z,52.00
2019-04-23T06:30:34.406Z,50.90
2019-04-23T06:34:50.085Z,50.70
2019-04-23T06:42:52.054Z,49.50
2019-04-23T06:47:16.641Z,49.20
2019-04-23T06:51:15.896Z,49.40
2019-04-23T06:55:14.970Z,50.00
2019-04-23T07:03:31.201Z,48.50
2019-04-23T07:11:40.242Z,47.20
2019-04-23T07:19:58.124Z,46.40
2019-04-23T07:28:14.646Z,46.20
2019-04-23T07:32:13.100Z,46.30
2019-04-23T07:40:40.449Z,46.30
2019-04-23T07:45:12.485Z,46.90
2019-04-23T07:49:15.104Z,45.90
2019-04-23T07:53:39.900Z,44.60
2019-04-23T07:57:49.373Z,44.80
2019-04-23T08:01:36.150Z,44.50
2019-04-23T08:09:56.857Z,43.60
2019-04-23T08:13:57.007Z,44.50
2019-04-23T08:18:06.988Z,43.60
2019-04-23T08:22:20.710Z,42.80
2019-04-23T08:26:42.517Z,42.00
2019-04-23T08:30:45.374Z,41.90
2019-04-23T08:38:57.016Z,41.00
2019-04-23T08:43:31.479Z,41.20
2019-04-23T08:47:26.974Z,39.70
2019-04-23T08:51:44.202Z,39.80
2019-04-23T08:55:53.729Z,39.50
2019-04-23T08:59:50.265Z,40.20
2019-04-23T09:03:51.281Z,38.60
2019-04-23T09:12:18.525Z,39.40
2019-04-23T09:16:15.687Z,39.00
2019-04-23T09:20:32.746Z,38.70
2019-04-23T09:24:35.561Z,38.50
2019-04-23T09:28:51.759Z,39.10
2019-04-23T09:32:42.200Z,38.90
2019-04-23T09:41:48.390Z,37.50
2019-04-23T09:50:04.612Z,37.90
2019-04-23T09:54:09.378Z,37.50
2019-04-23T09:58:07.890Z,37.00
2019-04-23T10:02:10.437Z,36.90
2019-04-23T10:06:05.978Z,37.10
2019-04-23T10:10:05.936Z,37.60
2019-04-23T10:14:12.342Z,36.60
2019-04-23T10:18:18.313Z,36.70
2019-04-23T10:22:23.304Z,36.90
2019-04-23T10:26:28.415Z,36.80
2019-04-23T10:30:33.740Z,36.80
2019-04-23T10:34:45.983Z,36.60
2019-04-23T10:38:53.953Z,37.50
2019-04-23T10:42:53.794Z,36.50
2019-04-23T10:47:58.958Z,35.30
2019-04-23T10:52:11.598Z,34.70
2019-04-23T10:56:14.211Z,34.00
2019-04-23T11:00:08.848Z,34.40
2019-04-23T11:04:38.479Z,33.00
2019-04-23T11:08:27.723Z,34.70
2019-04-23T11:12:44.894Z,32.10
2019-04-23T11:21:13.470Z,29.90
2019-04-23T11:25:23.150Z,29.80
2019-04-23T11:29:24.204Z,29.10
2019-04-23T11:37:45.862Z,28.90
2019-04-23T11:42:01.528Z,29.20
2019-04-23T11:45:53.931Z,29.20
2019-04-23T11:49:55.204Z,29.30
2019-04-23T11:54:03.472Z,28.60
2019-04-23T11:58:16.667Z,28.00
2019-04-23T12:02:23.206Z,28.00
2019-04-23T12:06:54.376Z,27.70
2019-04-23T12:11:37.891Z,27.90
2019-04-23T12:15:18.130Z,28.80
2019-04-23T12:19:47.719Z,27.80
2019-04-23T12:23:31.937Z,27.80
2019-04-23T12:31:47.254Z,27.70
2019-04-23T12:35:47.501Z,27.20
2019-04-23T12:40:05.926Z,26.20
2019-04-23T12:44:08.327Z,26.50
2019-04-23T12:48:16.210Z,26.40
2019-04-23T12:52:18.245Z,26.60
2019-04-23T12:56:31.807Z,26.50
2019-04-23T13:04:42.171Z,26.30
2019-04-23T13:09:00.919Z,25.80
2019-04-23T13:13:04.710Z,25.90
2019-04-23T13:21:17.313Z,25.40
2019-04-23T13:29:43.118Z,25.40
2019-04-23T13:33:58.650Z,24.30
2019-04-23T13:42:06.040Z,24.30
2019-04-23T13:46:14.950Z,23.90
2019-04-23T13:50:33.267Z,24.40
2019-04-23T13:54:27.830Z,24.20
2019-04-23T14:02:38.820Z,24.70
2019-04-23T14:10:44.815Z,24.60
2019-04-23T14:15:12.581Z,25.30
2019-04-23T14:27:20.140Z,25.20
2019-04-23T14:31:18.922Z,25.10
2019-04-23T14:39:40.529Z,25.50
2019-04-23T14:43:49.273Z,25.30
2019-04-23T14:48:02.027Z,25.60
2019-04-23T14:52:00.353Z,25.90
2019-04-23T15:00:17.458Z,26.20
2019-04-23T15:04:25.204Z,26.20
2019-04-23T15:08:33.670Z,26.00
2019-04-23T15:12:42.533Z,26.20
2019-04-23T15:16:44.958Z,26.50
2019-04-23T15:21:12.875Z,25.50
2019-04-23T15:25:15.320Z,24.50
2019-04-23T15:28:46.766Z,24.40
2019-04-23T15:33:19.780Z,24.50
2019-04-23T15:37:34.307Z,24.30
2019-04-23T15:41:32.055Z,24.10
2019-04-23T15:53:41.136Z,24.90
2019-04-23T16:01:41.304Z,25.20
2019-04-23T16:05:37.192Z,26.20
2019-04-23T16:10:19.172Z,26.00
2019-04-23T16:14:25.390Z,26.20
2019-04-23T16:22:39.384Z,27.10
2019-04-23T16:26:56.050Z,27.30
2019-04-23T16:31:03.179Z,27.40
2019-04-23T16:35:12.059Z,27.80
2019-04-23T16:39:12.228Z,28.20
2019-04-23T16:43:18.416Z,28.50
2019-04-23T16:51:32.736Z,28.50
2019-04-23T17:00:02.897Z,29.20
2019-04-23T17:03:56.633Z,29.40
2019-04-23T17:08:25.269Z,29.70
2019-04-23T17:16:18.229Z,30.30
2019-04-23T17:20:23.825Z,30.90
2019-04-23T17:28:31.027Z,31.30
2019-04-23T17:33:02.782Z,31.60
2019-04-23T17:37:07.137Z,31.50
2019-04-23T17:41:18.867Z,32.20
2019-04-23T17:49:36.789Z,32.70
2019-04-23T17:53:42.176Z,33.30
2019-04-23T17:57:45.829Z,33.60
2019-04-23T18:02:08.334Z,33.30
2019-04-23T18:14:08.267Z,35.90
2019-04-23T18:18:16.606Z,36.20
2019-04-23T18:22:35.795Z,36.50
2019-04-23T18:27:01.206Z,36.70
2019-04-23T18:31:20.324Z,37.40
2019-04-23T18:35:33.776Z,37.70
2019-04-23T18:39:37.321Z,38.10
2019-04-23T18:47:49.094Z,38.80
2019-04-23T18:52:03.223Z,39.20
2019-04-23T18:56:15.390Z,39.50
2019-04-23T19:00:17.785Z,39.50
2019-04-23T19:04:44.901Z,39.70
2019-04-23T19:08:58.038Z,40.10
2019-04-23T19:13:01.350Z,40.40
2019-04-23T19:17:36.098Z,40.60
2019-04-23T19:21:13.775Z,41.30
2019-04-23T19:25:25.146Z,41.70
2019-04-23T19:29:39.586Z,42.10
2019-04-23T19:33:38.260Z,42.40
2019-04-23T19:37:53.762Z,43.60
2019-04-23T19:41:55.648Z,43.90
2019-04-23T19:49:55.176Z,44.60
2019-04-23T20:06:55.737Z,45.70
2019-04-23T20:10:37.469Z,45.70
2019-04-23T20:18:50.826Z,46.30
2019-04-23T20:22:51.535Z,46.40
2019-04-23T20:35:55.688Z,47.30
2019-04-23T20:39:56.728Z,47.50
2019-04-23T20:44:12.113Z,48.40
2019-04-23T20:48:16.058Z,47.80
2019-04-23T20:52:08.731Z,47.90
2019-04-23T21:00:32.497Z,48.10
2019-04-23T21:04:53.066Z,48.00
2019-04-23T21:09:11.332Z,48.10
2019-04-23T21:17:07.405Z,47.70
2019-04-23T21:21:09.507Z,47.80
2019-04-23T21:25:27.505Z,47.50
2019-04-23T21:29:34.492Z,48.20
2019-04-23T21:33:34.085Z,47.60
2019-04-23T21:41:57.976Z,46.80
2019-04-23T21:46:14.870Z,46.70
2019-04-23T21:54:21.640Z,45.20
2019-04-23T21:58:40.778Z,45.00
2019-04-23T22:02:38.464Z,44.90
2019-04-23T22:06:43.503Z,44.10
2019-04-23T22:11:00.633Z,43.90
2019-04-23T22:14:50.680Z,43.40
2019-04-23T22:23:10.830Z,43.10
2019-04-23T22:27:11.685Z,43.10
2019-04-23T22:31:33.758Z,42.50
2019-04-23T22:35:30.147Z,42.10
2019-04-23T22:44:00.082Z,41.80
2019-04-23T22:48:05.209Z,41.70
2019-04-23T22:56:05.320Z,41.80
2019-04-23T23:08:30.729Z,41.00
2019-04-23T23:12:51.300Z,41.20
2019-04-23T23:16:45.154Z,41.40
2019-04-23T23:20:52.681Z,41.50
2019-04-23T23:25:04.867Z,42.10
2019-04-23T23:29:02.297Z,42.30
2019-04-23T23:33:17.303Z,42.00
2019-04-23T23:37:20.709Z,42.60
2019-04-23T23:41:26.585Z,42.70
2019-04-23T23:45:45.305Z,42.90
2019-04-23T23:49:48.405Z,42.60
2019-04-23T23:53:57.140Z,42.90
2019-04-23T23:58:04.713Z,43.00
